Time;durP1;ratioP1;P1;durP2;ratioP2;P2;SDS_P1;SDS_P2;PMS_P1;PMS_P2;Temp;Humidity;BMP_temperature;BMP_pressure;BME280_temperature;BME280_humidity;BME280_pressure;Samples;Min_cycle;Max_cycle;Signal;HPM_P1;HPM_P2
2022/07/09 00:00:20;;;;;;;14.10;8.07;;;;;;;18.75;67.98;99575.63;5107027;27;20037;-72
2022/07/09 00:02:45;;;;;;;12.75;7.68;;;;;;;18.73;68.04;99566.88;5108100;27;20476;-72
2022/07/09 00:05:12;;;;;;;15.50;8.98;;;;;;;18.70;68.06;99578.84;5111650;27;20042;-73
2022/07/09 00:07:36;;;;;;;14.32;8.57;;;;;;;18.72;67.94;99573.28;5106465;27;20167;-73
2022/07/09 00:10:01;;;;;;;18.17;8.27;;;;;;;18.70;67.89;99568.03;5110590;27;20114;-73
2022/07/09 00:12:28;;;;;;;15.43;8.38;;;;;;;18.66;67.84;99571.22;5117456;27;20091;-73
2022/07/09 00:14:52;;;;;;;12.32;8.07;;;;;;;18.63;68.11;99576.94;5119590;27;20062;-70
2022/07/09 00:17:17;;;;;;;11.82;8.52;;;;;;;18.60;68.40;99571.88;5103197;27;20038;-71
2022/07/09 00:19:42;;;;;;;12.20;7.75;;;;;;;18.57;68.65;99575.72;5109438;27;20035;-75
2022/07/09 00:22:07;;;;;;;15.02;8.23;;;;;;;18.52;68.45;99569.94;5128035;27;20068;-75
2022/07/09 00:24:32;;;;;;;14.10;7.88;;;;;;;18.49;69.21;99570.28;5104633;27;20038;-71
2022/07/09 00:26:57;;;;;;;18.10;8.30;;;;;;;18.46;69.24;99570.59;5084710;27;20046;-72
2022/07/09 00:29:21;;;;;;;14.88;8.75;;;;;;;18.43;69.16;99579.84;5098178;27;20127;-72
2022/07/09 00:31:46;;;;;;;18.63;8.70;;;;;;;18.40;69.93;99563.13;5096707;27;20049;-75
2022/07/09 00:34:12;;;;;;;15.20;8.40;;;;;;;18.37;69.56;99580.50;5087692;27;20039;-74
2022/07/09 00:36:36;;;;;;;14.07;8.82;;;;;;;18.34;69.98;99561.94;5090962;27;20065;-77
2022/07/09 00:39:01;;;;;;;15.13;8.95;;;;;;;18.31;69.99;99566.78;5106394;27;20075;-74
2022/07/09 00:41:26;;;;;;;16.40;8.45;;;;;;;18.27;70.00;99558.19;5090663;27;20516;-77
2022/07/09 00:43:51;;;;;;;17.98;8.52;;;;;;;18.24;70.20;99566.59;5103941;27;20062;-72
2022/07/09 00:46:17;;;;;;;15.40;8.75;;;;;;;18.22;70.52;99565.06;5107232;27;20412;-72
2022/07/09 00:48:42;;;;;;;14.65;9.07;;;;;;;18.19;70.74;99568.06;5088657;27;20031;-75
2022/07/09 00:51:08;;;;;;;15.57;8.85;;;;;;;18.17;70.68;99570.09;5088176;27;20039;-74
2022/07/09 00:53:33;;;;;;;16.08;8.95;;;;;;;18.13;70.10;99569.56;5062687;27;20548;-73
2022/07/09 00:56:00;;;;;;;17.60;8.32;;;;;;;18.11;70.41;99560.78;5087699;27;20042;-74
2022/07/09 00:58:24;;;;;;;13.90;7.85;;;;;;;18.07;70.91;99572.88;5107395;27;20119;-72
2022/07/09 01:00:50;;;;;;;15.73;8.10;;;;;;;18.04;71.09;99568.69;5092778;27;20067;-78
2022/07/09 01:03:15;;;;;;;13.18;8.05;;;;;;;18.03;70.89;99571.53;5117544;27;20196;-74
2022/07/09 01:05:40;;;;;;;14.85;8.10;;;;;;;18.00;71.45;99572.69;5078018;27;20125;-73
2022/07/09 01:08:07;;;;;;;17.08;8.82;;;;;;;18.01;71.35;99578.94;5106041;27;20126;-72
2022/07/09 01:10:33;;;;;;;17.35;9.00;;;;;;;17.99;71.25;99570.16;5104274;27;20406;-68
2022/07/09 01:12:58;;;;;;;13.57;8.50;;;;;;;17.99;71.57;99562.06;5088092;27;20042;-70
2022/07/09 01:15:23;;;;;;;15.00;7.95;;;;;;;17.99;71.45;99567.44;5086123;27;20039;-74
2022/07/09 01:17:47;;;;;;;13.65;9.07;;;;;;;17.98;71.58;99568.44;5076251;27;20058;-76
2022/07/09 01:20:12;;;;;;;22.40;10.50;;;;;;;17.96;71.55;99571.31;5104103;27;20050;-73
2022/07/09 01:22:37;;;;;;;11.13;7.50;;;;;;;17.96;71.42;99573.16;5087285;27;20046;-74
2022/07/09 01:25:09;;;;;;;15.48;8.30;;;;;;;17.97;71.60;99572.16;5104004;27;20125;-72
2022/07/09 01:27:38;;;;;;;14.25;8.93;;;;;;;17.97;71.60;99572.16;5088554;27;20035;-75
2022/07/09 01:30:04;;;;;;;18.05;9.02;;;;;;;17.96;71.77;99570.47;5069680;27;20508;-72
2022/07/09 01:32:29;;;;;;;12.38;7.82;;;;;;;17.96;71.99;99565.91;5088893;27;20039;-77
2022/07/09 01:34:54;;;;;;;14.55;8.35;;;;;;;17.98;71.95;99568.44;5088794;27;20704;-70
2022/07/09 01:37:20;;;;;;;17.10;8.70;;;;;;;17.99;71.92;99562.91;5101447;27;20401;-73
2022/07/09 01:39:51;;;;;;;14.15;8.80;;;;;;;18.01;71.95;99562.75;5077599;28;20043;-72
2022/07/09 01:42:19;;;;;;;16.60;9.10;;;;;;;18.05;72.34;99558.75;5095708;28;20570;-73
2022/07/09 01:44:45;;;;;;;13.30;8.35;;;;;;;18.03;71.69;99558.91;5096577;28;20130;-75
2022/07/09 01:47:10;;;;;;;12.80;8.30;;;;;;;18.05;71.73;99556.03;5096673;27;20064;-72
2022/07/09 01:49:35;;;;;;;13.48;8.15;;;;;;;18.06;71.58;99555.84;5078587;28;20515;-73
2022/07/09 01:52:00;;;;;;;16.45;8.52;;;;;;;18.08;71.70;99564.66;5108316;27;20504;-72
2022/07/09 01:54:24;;;;;;;13.13;8.10;;;;;;;18.09;71.89;99554.69;5116406;27;20054;-71
2022/07/09 01:56:49;;;;;;;13.70;8.07;;;;;;;18.10;72.05;99559.09;5097816;27;20038;-70
2022/07/09 01:59:14;;;;;;;13.57;7.70;;;;;;;18.12;71.79;99566.03;5116434;27;20043;-71
2022/07/09 02:01:39;;;;;;;12.20;8.20;;;;;;;18.15;71.43;99567.56;5113380;27;20572;-72
2022/07/09 02:04:04;;;;;;;13.70;9.05;;;;;;;18.16;71.54;99561.16;5081604;27;20042;-73
2022/07/09 02:06:28;;;;;;;14.02;7.78;;;;;;;18.19;71.46;99563.53;5097825;27;20449;-73
2022/07/09 02:08:53;;;;;;;13.02;7.45;;;;;;;18.23;71.03;99562.22;5116082;27;20489;-73
2022/07/09 02:11:18;;;;;;;10.68;7.60;;;;;;;18.27;71.28;99562.75;5116566;27;20523;-66
2022/07/09 02:13:42;;;;;;;11.60;7.85;;;;;;;18.30;71.33;99559.69;5116212;27;20137;-67
2022/07/09 02:16:27;;;;;;;18.40;8.13;;;;;;;18.32;71.25;99555.00;5087479;27;20137;-68
2022/07/09 02:18:52;;;;;;;13.18;8.07;;;;;;;18.36;71.05;99565.31;5098429;27;20133;-67
2022/07/09 02:21:17;;;;;;;13.30;7.68;;;;;;;18.40;70.93;99563.97;5118196;27;20493;-72
2022/07/09 02:23:42;;;;;;;12.40;7.80;;;;;;;18.48;70.69;99563.19;5099005;27;20063;-73
2022/07/09 02:26:07;;;;;;;10.77;7.20;;;;;;;18.58;70.40;99565.78;5098323;27;20505;-70
2022/07/09 02:28:32;;;;;;;15.13;8.13;;;;;;;18.66;70.63;99566.66;5097897;27;20129;-70
2022/07/09 02:30:57;;;;;;;11.68;8.05;;;;;;;18.78;70.22;99567.19;5116360;27;20450;-72
2022/07/09 02:33:22;;;;;;;15.20;7.95;;;;;;;18.89;69.79;99579.56;5116356;27;20386;-72
2022/07/09 02:35:47;;;;;;;14.45;7.60;;;;;;;18.99;69.70;99570.31;5119546;27;20105;-71
2022/07/09 02:38:11;;;;;;;11.88;8.50;;;;;;;19.08;69.19;99581.97;5101170;27;20062;-67
2022/07/09 02:40:36;;;;;;;11.15;7.72;;;;;;;19.14;68.91;99579.47;5119692;27;20531;-75
2022/07/09 02:43:01;;;;;;;14.02;8.05;;;;;;;19.20;68.71;99592.31;5116630;27;20034;-70
2022/07/09 02:45:27;;;;;;;12.38;7.70;;;;;;;19.21;68.85;99599.41;5099462;27;20074;-69
2022/07/09 02:47:51;;;;;;;13.57;8.15;;;;;;;19.19;68.98;99595.16;5099351;27;20077;-71
2022/07/09 02:50:16;;;;;;;14.95;7.85;;;;;;;19.16;69.07;99600.94;5115378;27;20035;-68
2022/07/09 02:52:41;;;;;;;13.77;7.60;;;;;;;19.13;69.55;99588.59;5116428;27;20053;-70
2022/07/09 02:55:06;;;;;;;9.02;6.95;;;;;;;19.11;69.59;99589.75;5099252;27;20050;-68
2022/07/09 02:57:30;;;;;;;12.32;9.18;;;;;;;19.11;69.37;99584.34;5101835;27;20489;-70
2022/07/09 02:59:55;;;;;;;12.90;7.50;;;;;;;19.14;69.64;99586.72;5122013;27;20473;-73
2022/07/09 03:02:20;;;;;;;20.15;9.40;;;;;;;19.21;69.20;99585.88;5102166;27;20042;-69
2022/07/09 03:04:45;;;;;;;18.42;8.95;;;;;;;19.25;68.91;99601.78;5121571;27;20513;-68
2022/07/09 03:07:09;;;;;;;11.73;7.85;;;;;;;19.23;68.99;99608.19;5100153;27;20773;-67
2022/07/09 03:09:34;;;;;;;13.63;7.85;;;;;;;19.23;68.88;99602.78;5100943;27;20417;-68
2022/07/09 03:11:59;;;;;;;16.85;8.05;;;;;;;19.28;68.49;99596.06;5100341;27;20581;-65
2022/07/09 03:14:24;;;;;;;12.65;7.82;;;;;;;19.32;68.88;99591.97;5119101;27;20480;-67
2022/07/09 03:16:49;;;;;;;13.57;7.68;;;;;;;19.36;68.45;99588.78;5119015;27;20077;-64
2022/07/09 03:19:14;;;;;;;16.48;7.88;;;;;;;19.41;68.51;99581.00;5082792;27;20050;-65
2022/07/09 03:21:39;;;;;;;14.68;9.05;;;;;;;19.57;68.84;99585.63;5099941;27;20549;-65
2022/07/09 03:24:04;;;;;;;19.55;9.68;;;;;;;19.67;66.74;99583.59;5118756;27;20046;-69
2022/07/09 03:26:28;;;;;;;18.27;9.48;;;;;;;19.70;66.56;99582.41;5118328;27;20046;-65
2022/07/09 03:28:53;;;;;;;17.92;9.25;;;;;;;19.73;66.60;99580.22;5100097;27;20066;-64
2022/07/09 03:31:18;;;;;;;14.50;8.43;;;;;;;19.83;66.59;99591.72;5100664;27;20145;-66
2022/07/09 03:33:43;;;;;;;14.68;8.45;;;;;;;19.99;65.81;99579.16;5118701;27;20049;-65
2022/07/09 03:36:09;;;;;;;20.00;9.63;;;;;;;20.17;64.47;99574.44;5084873;27;20113;-74
2022/07/09 03:38:34;;;;;;;22.15;9.95;;;;;;;20.29;63.93;99554.94;5093323;27;20046;-71
2022/07/09 03:41:00;;;;;;;23.80;9.15;;;;;;;20.41;63.16;99533.78;5071523;27;20046;-72
2022/07/09 03:43:25;;;;;;;19.48;10.13;;;;;;;20.45;62.55;99526.13;5106615;27;20486;-70
2022/07/09 03:45:50;;;;;;;22.85;11.23;;;;;;;20.43;61.91;99533.59;5106069;27;20050;-73
2022/07/09 03:48:14;;;;;;;23.88;11.00;;;;;;;20.41;61.24;99525.66;5109338;27;20499;-72
2022/07/09 03:50:39;;;;;;;16.05;10.25;;;;;;;20.42;62.73;99532.75;5105244;27;20506;-72
2022/07/09 03:53:04;;;;;;;14.77;9.20;;;;;;;20.47;64.04;99538.47;5105874;27;20096;-72
2022/07/09 03:55:29;;;;;;;16.65;9.20;;;;;;;20.52;65.17;99546.94;5108749;27;20454;-71
2022/07/09 03:57:53;;;;;;;16.63;10.27;;;;;;;20.59;64.46;99545.19;5119245;27;20070;-72
2022/07/09 04:00:18;;;;;;;15.73;10.77;;;;;;;20.67;64.35;99558.69;5099322;27;20043;-71
2022/07/09 04:02:43;;;;;;;18.70;10.73;;;;;;;20.74;63.61;99564.28;5118104;27;20042;-71
2022/07/09 04:05:09;;;;;;;18.27;11.25;;;;;;;20.84;62.90;99572.19;5099384;27;20537;-74
2022/07/09 04:07:33;;;;;;;17.77;10.68;;;;;;;20.96;61.95;99559.94;5099835;27;20963;-72
2022/07/09 04:09:58;;;;;;;16.73;10.20;;;;;;;21.20;61.79;99558.97;5098978;27;20496;-72
2022/07/09 04:12:23;;;;;;;15.20;9.55;;;;;;;21.53;61.15;99565.00;5099110;27;20042;-70
2022/07/09 04:14:48;;;;;;;20.40;9.80;;;;;;;21.90;59.95;99564.16;5098996;27;20049;-72
2022/07/09 04:17:12;;;;;;;18.70;10.20;;;;;;;22.25;59.05;99574.34;5117553;27;20075;-71
2022/07/09 04:19:37;;;;;;;18.25;10.65;;;;;;;22.54;57.77;99572.69;5081641;27;20129;-71
2022/07/09 04:22:03;;;;;;;17.25;10.65;;;;;;;22.81;56.36;99578.28;5117801;27;20359;-71
2022/07/09 04:24:28;;;;;;;17.23;10.10;;;;;;;23.06;55.43;99578.81;5117423;27;20046;-71
2022/07/09 04:26:53;;;;;;;15.13;10.25;;;;;;;23.32;54.65;99581.00;5117340;27;20042;-72
2022/07/09 04:29:18;;;;;;;17.38;10.27;;;;;;;23.50;53.86;99577.84;5117287;27;20038;-67
2022/07/09 04:31:43;;;;;;;18.55;12.07;;;;;;;23.64;52.66;99582.41;5081273;27;20046;-67
2022/07/09 04:34:08;;;;;;;24.35;11.88;;;;;;;23.64;52.36;99578.81;5081406;27;20437;-67
2022/07/09 04:36:32;;;;;;;13.38;10.85;;;;;;;23.66;52.48;99576.75;5117275;27;20093;-67
2022/07/09 04:38:57;;;;;;;21.67;11.05;;;;;;;23.80;51.64;99582.13;5116862;27;20145;-67
2022/07/09 04:41:22;;;;;;;19.98;10.55;;;;;;;23.90;50.78;99573.63;5081210;27;20129;-67
2022/07/09 04:43:47;;;;;;;19.15;10.18;;;;;;;24.04;50.65;99572.66;5117089;27;20376;-66
2022/07/09 04:46:12;;;;;;;14.48;9.45;;;;;;;24.19;50.25;99565.25;5117411;27;20531;-64
2022/07/09 04:48:37;;;;;;;16.08;8.95;;;;;;;24.42;49.28;99566.88;5118512;27;20042;-65
2022/07/09 04:51:01;;;;;;;13.73;8.35;;;;;;;24.62;47.90;99562.38;5103048;27;20249;-66
2022/07/09 04:53:26;;;;;;;8.80;7.25;;;;;;;24.76;46.51;99561.41;5081865;27;20043;-66
2022/07/09 04:55:51;;;;;;;12.63;7.22;;;;;;;24.94;47.17;99559.00;5098361;27;20050;-67
2022/07/09 04:58:16;;;;;;;13.98;6.93;;;;;;;25.28;46.61;99551.78;5096114;27;20043;-66
2022/07/09 05:00:41;;;;;;;11.32;6.68;;;;;;;25.64;45.46;99551.41;5096261;27;20074;-66
2022/07/09 05:03:05;;;;;;;13.00;6.88;;;;;;;25.95;45.18;99550.81;5096597;27;20047;-66
2022/07/09 05:05:30;;;;;;;11.98;6.40;;;;;;;26.16;43.40;99552.47;5078394;27;20039;-65
2022/07/09 05:07:55;;;;;;;11.85;5.97;;;;;;;26.15;42.40;99551.63;5078824;27;20047;-65
2022/07/09 05:10:20;;;;;;;9.65;5.40;;;;;;;26.30;42.55;99552.25;5097414;27;20039;-66
2022/07/09 05:12:44;;;;;;;9.88;5.93;;;;;;;26.62;41.71;99546.94;5077220;27;20039;-66
2022/07/09 05:15:10;;;;;;;9.35;5.60;;;;;;;26.79;40.10;99537.19;5095683;27;20382;-68
2022/07/09 05:17:36;;;;;;;12.30;5.43;;;;;;;27.24;39.62;99550.88;5103076;27;20067;-68
2022/07/09 05:20:03;;;;;;;7.90;4.75;;;;;;;27.41;38.01;99543.84;5098602;27;20042;-74
2022/07/09 05:22:28;;;;;;;7.55;4.60;;;;;;;27.66;38.18;99543.88;5105452;27;20046;-74
2022/07/09 05:24:53;;;;;;;9.35;4.68;;;;;;;27.73;37.37;99542.78;5082773;27;20520;-73
2022/07/09 05:27:18;;;;;;;17.17;5.10;;;;;;;27.26;37.58;99555.06;5097421;27;20401;-73
2022/07/09 05:29:43;;;;;;;8.20;5.10;;;;;;;26.66;39.23;99559.94;5080192;27;20031;-69
2022/07/09 05:32:08;;;;;;;4.88;4.25;;;;;;;26.16;39.59;99552.47;5097098;27;20045;-68
2022/07/09 05:34:33;;;;;;;7.90;4.90;;;;;;;25.74;40.64;99553.72;5095590;27;20241;-68
2022/07/09 05:36:58;;;;;;;8.77;4.43;;;;;;;25.33;41.16;99549.25;5095824;27;20039;-66
2022/07/09 05:39:22;;;;;;;7.38;4.05;;;;;;;25.10;41.56;99544.16;5077435;28;20118;-66
2022/07/09 05:41:48;;;;;;;5.45;3.92;;;;;;;24.98;42.01;99540.34;5078452;28;20566;-66
2022/07/09 05:44:13;;;;;;;4.20;3.67;;;;;;;24.93;41.52;99540.97;5099676;28;20372;-65
2022/07/09 05:46:37;;;;;;;6.85;3.97;;;;;;;24.74;42.03;99543.56;5095684;27;20087;-67
2022/07/09 05:49:03;;;;;;;5.03;3.70;;;;;;;24.67;42.45;99542.72;5095478;28;20073;-66
2022/07/09 05:51:28;;;;;;;5.55;3.90;;;;;;;24.67;42.41;99538.09;5095434;28;20095;-66
2022/07/09 05:53:52;;;;;;;11.50;4.53;;;;;;;24.85;42.62;99541.09;5077395;28;20071;-66
2022/07/09 05:56:18;;;;;;;7.35;4.28;;;;;;;25.23;42.02;99541.47;5076841;28;20077;-66
2022/07/09 05:58:43;;;;;;;4.90;4.03;;;;;;;25.72;40.65;99539.47;5095212;28;20153;-66
2022/07/09 06:01:07;;;;;;;5.40;4.13;;;;;;;25.98;40.44;99532.09;5059818;28;20081;-66
2022/07/09 06:03:32;;;;;;;6.00;4.53;;;;;;;26.13;39.87;99531.03;5095441;27;20073;-66
2022/07/09 06:05:57;;;;;;;7.93;4.50;;;;;;;26.14;40.16;99521.78;5095263;28;20165;-66
2022/07/09 06:08:23;;;;;;;6.38;4.30;;;;;;;26.17;39.92;99529.56;5076936;28;20121;-66
2022/07/09 06:10:48;;;;;;;6.78;4.93;;;;;;;26.03;40.37;99528.72;5098710;27;20074;-66
2022/07/09 06:13:13;;;;;;;4.75;3.70;;;;;;;25.96;39.97;99523.25;5099915;27;20039;-67
2022/07/09 06:15:38;;;;;;;6.45;3.95;;;;;;;25.91;40.01;99519.50;5064043;27;20054;-65
2022/07/09 06:18:02;;;;;;;7.43;5.25;;;;;;;25.94;39.33;99514.47;5080731;27;20054;-68
2022/07/09 06:20:27;;;;;;;3.63;3.33;;;;;;;26.13;39.56;99511.91;5098946;27;20049;-66
2022/07/09 06:22:52;;;;;;;4.20;3.45;;;;;;;26.70;39.48;99514.72;5099331;27;20386;-71
2022/07/09 06:25:17;;;;;;;4.22;3.80;;;;;;;27.21;38.61;99515.72;5099641;27;20066;-72
2022/07/09 06:27:42;;;;;;;4.05;3.20;;;;;;;27.42;36.77;99518.97;5100348;27;20035;-72
2022/07/09 06:30:07;;;;;;;6.22;4.07;;;;;;;27.35;37.12;99528.28;5080876;27;20083;-70
2022/07/09 06:32:32;;;;;;;5.20;3.22;;;;;;;27.94;35.84;99529.75;5080793;27;20147;-70
2022/07/09 06:34:56;;;;;;;4.85;3.47;;;;;;;28.54;34.55;99519.88;5099583;27;20071;-71
2022/07/09 06:37:21;;;;;;;4.85;3.65;;;;;;;28.60;34.45;99507.97;5099792;27;20046;-71
2022/07/09 06:39:48;;;;;;;4.68;3.20;;;;;;;28.40;35.09;99526.56;5081236;27;20054;-72
2022/07/09 06:42:13;;;;;;;4.05;3.50;;;;;;;28.63;35.13;99514.91;5099033;27;20034;-66
2022/07/09 06:44:43;;;;;;;7.47;3.97;;;;;;;29.13;34.14;99521.03;5098790;27;20060;-66
2022/07/09 06:47:08;;;;;;;4.53;3.85;;;;;;;29.21;34.00;99520.72;5098643;27;20046;-67
2022/07/09 06:49:33;;;;;;;5.43;3.90;;;;;;;29.19;34.35;99517.38;5080482;27;20034;-67
2022/07/09 06:51:59;;;;;;;6.20;4.25;;;;;;;29.00;33.96;99513.00;5098700;27;20493;-66
2022/07/09 06:54:24;;;;;;;7.70;4.40;;;;;;;29.41;33.38;99512.22;5080055;27;20071;-66
2022/07/09 06:56:49;;;;;;;5.22;3.90;;;;;;;29.88;33.18;99513.97;5080285;27;20082;-67
2022/07/09 06:59:14;;;;;;;5.20;4.05;;;;;;;29.96;32.17;99515.56;5098530;27;20501;-67
2022/07/09 07:01:39;;;;;;;5.38;4.30;;;;;;;29.84;32.85;99503.69;5099317;27;20035;-68
2022/07/09 07:04:04;;;;;;;6.82;4.35;;;;;;;30.02;32.89;99509.13;5098748;27;20042;-67
2022/07/09 07:06:29;;;;;;;7.35;4.28;;;;;;;30.31;32.45;99512.78;5080104;27;20091;-68
2022/07/09 07:08:53;;;;;;;5.07;4.50;;;;;;;30.00;32.74;99502.19;5097955;27;20081;-68
2022/07/09 07:11:18;;;;;;;6.00;4.90;;;;;;;29.41;32.94;99501.22;5080923;27;20409;-68
2022/07/09 07:13:43;;;;;;;7.68;4.50;;;;;;;28.59;34.54;99502.72;5099233;27;20056;-68
2022/07/09 07:16:08;;;;;;;8.88;4.78;;;;;;;28.00;36.34;99509.66;5080097;27;20509;-67
2022/07/09 07:18:33;;;;;;;8.18;4.78;;;;;;;27.53;37.79;99506.47;5098461;27;20051;-67
2022/07/09 07:20:57;;;;;;;5.80;4.32;;;;;;;27.11;37.83;99502.53;5078656;27;20031;-67
2022/07/09 07:23:22;;;;;;;8.55;5.05;;;;;;;26.64;39.51;99511.97;5079866;27;20043;-69
2022/07/09 07:25:47;;;;;;;6.65;4.18;;;;;;;26.31;39.51;99521.13;5099135;27;20047;-68
2022/07/09 07:28:12;;;;;;;9.38;4.63;;;;;;;25.98;39.15;99515.69;5079908;27;20035;-67
2022/07/09 07:30:37;;;;;;;7.07;4.47;;;;;;;25.53;40.00;99511.91;5063664;27;20049;-67
2022/07/09 07:33:02;;;;;;;6.43;4.63;;;;;;;25.14;41.53;99517.31;5099147;27;20445;-67
2022/07/09 07:35:27;;;;;;;5.55;3.97;;;;;;;24.91;42.55;99521.22;5099187;27;20098;-68
2022/07/09 07:37:52;;;;;;;5.15;3.92;;;;;;;24.66;43.32;99522.78;5080153;27;20521;-68
2022/07/09 07:40:17;;;;;;;4.25;3.83;;;;;;;24.39;44.87;99534.59;5098860;27;20516;-70
2022/07/09 07:42:42;;;;;;;5.38;3.70;;;;;;;24.04;46.35;99529.09;5098765;27;20171;-67
2022/07/09 07:45:07;;;;;;;4.55;3.65;;;;;;;23.80;47.46;99527.69;5080302;27;20133;-67
2022/07/09 07:47:32;;;;;;;7.18;4.32;;;;;;;23.55;49.31;99536.47;5097973;27;20095;-67
2022/07/09 07:49:56;;;;;;;4.07;3.67;;;;;;;23.38;50.50;99536.69;5111469;27;20163;-67
2022/07/09 07:52:21;;;;;;;5.28;4.55;;;;;;;22.90;52.16;99548.31;5079799;27;20043;-68
2022/07/09 07:54:46;;;;;;;6.65;4.40;;;;;;;22.62;53.41;99546.25;5098825;27;20038;-68
2022/07/09 07:57:11;;;;;;;6.22;4.60;;;;;;;22.55;54.00;99552.63;5079342;27;20126;-67
2022/07/09 07:59:36;;;;;;;6.13;4.38;;;;;;;22.30;55.95;99561.06;5098820;27;20126;-71
2022/07/09 08:02:02;;;;;;;6.97;4.13;;;;;;;21.92;57.97;99562.09;5099198;27;20122;-67
2022/07/09 08:04:27;;;;;;;5.53;4.95;;;;;;;21.58;59.43;99565.28;5079013;27;20098;-65
2022/07/09 08:06:52;;;;;;;8.70;5.07;;;;;;;21.31;61.05;99556.69;5061842;27;20039;-65
2022/07/09 08:09:16;;;;;;;6.38;5.03;;;;;;;21.23;62.12;99564.84;5061718;27;20042;-65
2022/07/09 08:11:41;;;;;;;7.95;5.65;;;;;;;21.28;60.86;99576.03;5098525;27;20039;-66
2022/07/09 08:14:06;;;;;;;14.50;6.70;;;;;;;21.39;60.55;99569.34;5097262;27;20047;-67
2022/07/09 08:16:31;;;;;;;8.60;5.82;;;;;;;21.33;61.69;99570.88;5061865;27;20031;-66
2022/07/09 08:18:56;;;;;;;11.00;6.45;;;;;;;21.20;63.52;99565.22;5096988;27;20497;-66
2022/07/09 08:21:21;;;;;;;9.40;6.13;;;;;;;21.28;64.51;99558.91;5078529;27;20039;-67
2022/07/09 08:23:51;;;;;;;10.88;6.15;;;;;;;21.40;63.72;99560.19;5078612;27;20092;-67
2022/07/09 08:26:24;;;;;;;11.70;6.50;;;;;;;21.63;62.41;99558.28;5096818;27;20035;-65
2022/07/09 08:28:49;;;;;;;8.38;5.70;;;;;;;21.71;61.57;99562.81;5078594;27;20489;-65
2022/07/09 08:31:18;;;;;;;8.77;5.68;;;;;;;21.86;61.09;99560.13;5097326;27;20616;-71
2022/07/09 08:33:43;;;;;;;12.23;6.60;;;;;;;21.92;59.82;99552.09;5096570;27;20232;-71
2022/07/09 08:36:08;;;;;;;9.93;7.88;;;;;;;21.88;61.29;99550.78;5078593;27;20038;-71
2022/07/09 08:38:33;;;;;;;12.68;6.60;;;;;;;21.80;62.67;99566.28;5097047;27;20065;-71
2022/07/09 08:41:00;;;;;;;6.95;5.82;;;;;;;21.79;61.96;99557.28;5096768;27;20046;-70
2022/07/09 08:43:26;;;;;;;7.78;5.60;;;;;;;21.81;61.56;99557.97;5097088;27;20387;-71
2022/07/09 08:45:53;;;;;;;12.20;6.18;;;;;;;21.85;61.10;99548.44;5097874;27;20115;-71
2022/07/09 08:48:18;;;;;;;7.00;5.88;;;;;;;21.91;60.14;99546.84;5097227;27;20043;-72
2022/07/09 08:50:43;;;;;;;7.60;6.20;;;;;;;21.97;61.12;99541.53;5097667;27;20042;-71
2022/07/09 08:53:09;;;;;;;10.45;6.22;;;;;;;22.09;61.52;99544.66;5096807;27;20038;-72
2022/07/09 08:55:36;;;;;;;8.43;6.22;;;;;;;22.20;61.70;99551.50;5079169;27;20078;-72
2022/07/09 08:58:00;;;;;;;9.65;6.20;;;;;;;22.32;61.83;99550.84;5104121;27;20056;-71
2022/07/09 09:00:25;;;;;;;6.55;5.85;;;;;;;22.44;59.53;99551.22;5101284;27;20378;-72
2022/07/09 09:02:50;;;;;;;12.52;7.18;;;;;;;22.53;58.55;99541.09;5078600;27;20134;-72
2022/07/09 09:05:16;;;;;;;12.18;7.15;;;;;;;22.41;58.51;99549.72;5079419;27;20046;-68
2022/07/09 09:07:41;;;;;;;10.75;6.88;;;;;;;22.37;59.66;99553.00;5097215;27;20039;-68
2022/07/09 09:10:07;;;;;;;10.25;6.75;;;;;;;22.34;60.45;99542.53;5061816;27;20574;-68
2022/07/09 09:12:31;;;;;;;16.02;7.00;;;;;;;22.37;59.48;99533.97;5078864;27;20050;-69
2022/07/09 09:14:56;;;;;;;10.93;6.45;;;;;;;22.36;57.82;99525.00;5097117;27;20047;-69
2022/07/09 09:17:21;;;;;;;8.60;6.15;;;;;;;22.35;58.03;99522.47;5061929;28;20443;-68
2022/07/09 09:19:45;;;;;;;13.63;6.93;;;;;;;22.31;58.39;99516.56;5078187;27;20126;-69
2022/07/09 09:22:15;;;;;;;8.70;6.30;;;;;;;22.27;58.18;99517.97;5060966;27;20047;-71
2022/07/09 09:24:42;;;;;;;8.05;5.68;;;;;;;22.29;58.45;99517.78;5077720;27;20078;-68
2022/07/09 09:27:07;;;;;;;7.00;5.47;;;;;;;22.36;57.75;99513.28;5096112;27;20042;-69
2022/07/09 09:29:31;;;;;;;9.93;6.15;;;;;;;22.50;58.09;99498.00;5095887;27;20061;-69
2022/07/09 09:31:56;;;;;;;8.50;6.82;;;;;;;22.70;58.37;99491.78;5077720;28;20049;-70
2022/07/09 09:34:22;;;;;;;7.22;5.95;;;;;;;22.97;58.04;99497.56;5077459;27;20094;-68
2022/07/09 09:36:52;;;;;;;9.20;6.35;;;;;;;23.29;57.99;99498.91;5096444;27;20043;-67
2022/07/09 09:39:21;;;;;;;10.73;6.80;;;;;;;23.62;56.25;99504.69;5096060;27;20402;-68
2022/07/09 09:41:51;;;;;;;10.88;7.47;;;;;;;23.89;55.48;99490.25;5077273;28;20432;-72
2022/07/09 09:44:18;;;;;;;12.73;5.80;;;;;;;24.08;56.44;99478.63;5061272;28;20115;-72
2022/07/09 09:46:44;;;;;;;8.60;6.50;;;;;;;24.21;55.86;99478.72;5096048;27;20046;-73
2022/07/09 09:49:14;;;;;;;8.90;5.88;;;;;;;24.33;54.28;99473.56;5077927;28;20508;-72
2022/07/09 09:52:02;;;;;;;11.00;6.13;;;;;;;24.55;53.33;99468.84;5077864;28;20047;-74
2022/07/09 09:54:28;;;;;;;16.10;12.40;;;;;;;24.88;52.78;99475.25;5097898;28;20050;-73
2022/07/09 09:56:54;;;;;;;13.15;7.78;;;;;;;25.22;51.84;99465.28;5062289;28;20427;-73
2022/07/09 09:59:19;;;;;;;12.02;8.13;;;;;;;25.46;50.41;99461.94;5082959;28;20066;-74
2022/07/09 10:01:45;;;;;;;10.18;7.57;;;;;;;25.55;49.12;99463.41;5097339;27;20051;-73
2022/07/09 10:04:12;;;;;;;10.00;6.13;;;;;;;25.51;48.24;99453.94;5099813;28;20477;-71
2022/07/09 10:06:38;;;;;;;6.95;5.80;;;;;;;25.40;48.30;99467.38;5099922;28;20070;-73
2022/07/09 10:09:04;;;;;;;11.02;6.45;;;;;;;25.24;48.51;99452.25;5101676;28;20050;-77
2022/07/09 10:11:48;;;;;;;11.80;6.40;;;;;;;25.19;48.74;99452.88;5100017;28;20050;-75
2022/07/09 10:14:33;;;;;;;10.05;5.85;;;;;;;25.06;49.03;99450.13;5061025;28;20046;-74
2022/07/09 10:17:10;;;;;;;8.35;6.15;;;;;;;24.94;49.41;99449.91;5077631;28;20134;-72
2022/07/09 10:19:35;;;;;;;10.85;6.72;;;;;;;24.84;49.66;99443.13;5095308;28;20047;-73
2022/07/09 10:22:00;;;;;;;8.10;6.18;;;;;;;24.94;49.09;99446.34;5095366;28;20046;-72
2022/07/09 10:24:29;;;;;;;9.25;6.28;;;;;;;25.23;48.63;99426.03;5096318;27;20038;-71
2022/07/09 10:27:04;;;;;;;10.23;7.85;;;;;;;25.88;47.51;99435.25;5070774;27;20050;-72
2022/07/09 10:29:29;;;;;;;15.60;9.43;;;;;;;26.45;46.09;99434.47;5086263;27;20081;-71
2022/07/09 10:31:55;;;;;;;17.55;12.30;;;;;;;27.33;44.43;99426.34;5087506;27;20501;-71
2022/07/09 10:34:30;;;;;;;18.85;12.98;;;;;;;28.45;43.01;99431.56;5075639;27;20084;-72
2022/07/09 10:37:04;;;;;;;14.80;9.20;;;;;;;29.10;41.04;99429.00;5088494;27;20047;-72
2022/07/09 10:39:29;;;;;;;;;;;;;;;29.60;42.07;99431.38;5104189;27;20035;-73
2022/07/09 10:42:07;;;;;;;10.60;8.68;;;;;;;29.30;40.17;99427.84;5105559;27;20013;-71
2022/07/09 10:44:37;;;;;;;7.63;6.22;;;;;;;28.74;40.09;99415.38;5085219;27;20038;-73
2022/07/09 10:47:03;;;;;;;9.20;6.75;;;;;;;27.89;41.30;99409.84;5089363;27;20032;-73
2022/07/09 10:49:28;;;;;;;12.15;8.00;;;;;;;27.35;41.99;99403.19;5084026;28;20516;-72
2022/07/09 10:51:57;;;;;;;15.55;11.00;;;;;;;27.15;42.88;99401.66;5105713;27;20516;-72
2022/07/09 10:54:22;;;;;;;13.95;9.50;;;;;;;26.67;43.76;99389.34;5070857;27;20058;-72
2022/07/09 10:56:47;;;;;;;10.65;8.15;;;;;;;26.30;43.70;99388.25;5090510;27;20405;-71
2022/07/09 10:59:17;;;;;;;8.85;7.32;;;;;;;25.84;45.08;99393.03;5088676;27;20480;-77
2022/07/09 11:01:42;;;;;;;10.75;7.53;;;;;;;25.43;46.29;99385.94;5092319;27;20035;-70
2022/07/09 11:04:08;;;;;;;12.80;8.57;;;;;;;25.18;46.76;99368.50;5109208;27;20035;-69
2022/07/09 11:06:32;;;;;;;13.45;8.15;;;;;;;24.95;47.25;99356.13;5089641;27;20110;-70
2022/07/09 11:08:57;;;;;;;9.93;7.30;;;;;;;24.77;46.72;99361.34;5108252;27;20035;-69
2022/07/09 11:11:23;;;;;;;18.15;9.25;;;;;;;24.63;47.42;99356.06;5112332;27;20053;-69
2022/07/09 11:13:54;;;;;;;14.85;10.65;;;;;;;24.60;47.39;99351.88;5093952;27;20031;-69
2022/07/09 11:16:23;;;;;;;13.13;9.82;;;;;;;24.63;47.92;99350.59;5087101;27;20083;-74
2022/07/09 11:18:48;;;;;;;17.42;9.48;;;;;;;24.70;46.98;99351.47;5073370;27;20047;-76